Time;durP1;ratioP1;P1;durP2;ratioP2;P2;SDS_P1;SDS_P2;PMS_P1;PMS_P2;Temp;Humidity;BMP_temperature;BMP_pressure;BME280_temperature;BME280_humidity;BME280_pressure;Samples;Min_cycle;Max_cycle;Signal;HPM_P1;HPM_P2
2023/06/26 00:01:57;;;;;;;0.60;0.60;;;22.20;58.00;;;;;;6269533;28;20070;-74
2023/06/26 00:04:58;;;;;;;1.02;0.77;;;22.20;58.00;;;;;;6268432;28;20557;-75
2023/06/26 00:08:00;;;;;;;0.70;0.65;;;22.20;58.00;;;;;;6268865;28;20033;-75
2023/06/26 00:11:00;;;;;;;0.80;0.70;;;22.20;58.00;;;;;;6268653;28;20025;-74
2023/06/26 00:14:01;;;;;;;1.05;0.70;;;22.20;58.00;;;;;;6268055;28;20090;-74
2023/06/26 00:17:02;;;;;;;0.73;0.65;;;22.20;58.00;;;;;;6268340;28;20029;-74
2023/06/26 00:20:05;;;;;;;0.60;0.60;;;22.20;58.00;;;;;;6267802;28;20494;-74
2023/06/26 00:23:07;;;;;;;0.90;0.80;;;22.20;58.00;;;;;;6267862;28;20075;-76
2023/06/26 00:26:09;;;;;;;1.13;0.73;;;22.20;58.00;;;;;;6267236;28;20504;-74
2023/06/26 00:29:09;;;;;;;0.82;0.80;;;22.20;58.00;;;;;;6267473;28;20033;-74
2023/06/26 00:32:10;;;;;;;0.90;0.70;;;22.20;58.00;;;;;;6267802;28;20032;-74
2023/06/26 00:35:10;;;;;;;0.77;0.70;;;22.20;58.00;;;;;;6267743;28;20037;-74
2023/06/26 00:38:11;;;;;;;0.88;0.75;;;22.20;58.00;;;;;;6267739;28;20048;-75
2023/06/26 00:41:12;;;;;;;0.93;0.82;;;22.20;58.00;;;;;;6267651;28;20032;-74
2023/06/26 00:44:13;;;;;;;0.68;0.68;;;22.20;58.10;;;;;;6267557;28;20032;-74
2023/06/26 00:47:18;;;;;;;0.60;0.60;;;22.20;58.10;;;;;;6267394;28;20025;-75
2023/06/26 00:50:18;;;;;;;1.02;0.60;;;22.20;58.10;;;;;;6266790;28;20062;-74
2023/06/26 00:53:19;;;;;;;0.70;0.70;;;22.20;58.10;;;;;;6266788;28;20630;-74
2023/06/26 00:56:20;;;;;;;0.70;0.70;;;22.20;58.10;;;;;;6267085;28;20075;-74
2023/06/26 00:59:21;;;;;;;0.90;0.80;;;22.20;58.10;;;;;;6266667;28;20060;-74
2023/06/26 01:02:21;;;;;;;0.70;0.63;;;22.20;58.10;;;;;;6267447;28;20021;-75
2023/06/26 01:05:22;;;;;;;0.60;0.60;;;22.20;58.10;;;;;;6260379;28;20082;-74
2023/06/26 01:08:23;;;;;;;0.95;0.88;;;22.20;58.10;;;;;;6267621;28;20128;-74
2023/06/26 01:11:24;;;;;;;0.77;0.70;;;22.20;58.10;;;;;;6267037;28;20028;-74
2023/06/26 01:14:24;;;;;;;0.60;0.60;;;22.20;58.10;;;;;;6262133;28;20040;-74
2023/06/26 01:17:31;;;;;;;1.23;0.90;;;22.20;58.10;;;;;;6271661;28;20129;-74
2023/06/26 01:20:35;;;;;;;0.70;0.70;;;22.20;58.10;;;;;;6270660;28;20121;-74
2023/06/26 01:23:55;;;;;;;1.15;0.70;;;22.20;58.20;;;;;;6271206;28;20100;-74
2023/06/26 01:26:58;;;;;;;0.80;0.70;;;22.20;58.10;;;;;;6271186;28;20063;-74
2023/06/26 01:30:02;;;;;;;1.02;0.93;;;22.20;58.20;;;;;;6244589;28;20053;-74
2023/06/26 01:33:04;;;;;;;1.10;0.80;;;22.20;58.20;;;;;;6254606;28;20172;-75
2023/06/26 01:36:06;;;;;;;0.80;0.70;;;22.20;58.20;;;;;;6271951;28;20076;-74
2023/06/26 01:39:08;;;;;;;0.75;0.70;;;22.20;58.20;;;;;;6271973;28;20457;-74
2023/06/26 01:42:09;;;;;;;0.73;0.70;;;22.20;58.20;;;;;;6272271;28;20029;-75
2023/06/26 01:45:21;;;;;;;0.75;0.68;;;22.20;58.20;;;;;;6270858;28;20048;-74
2023/06/26 01:48:29;;;;;;;0.85;0.80;;;22.20;58.20;;;;;;6271199;28;20020;-74
2023/06/26 01:51:35;;;;;;;0.80;0.70;;;22.20;58.20;;;;;;6271017;28;20033;-74
2023/06/26 01:54:43;;;;;;;0.90;0.90;;;22.20;58.20;;;;;;6271040;28;20086;-74
2023/06/26 01:57:46;;;;;;;0.75;0.75;;;22.20;58.20;;;;;;6270880;28;20033;-74
2023/06/26 02:00:47;;;;;;;1.00;0.90;;;22.20;58.20;;;;;;6270535;28;20056;-74
2023/06/26 02:03:48;;;;;;;0.63;0.63;;;22.20;58.20;;;;;;6271014;28;20112;-74
2023/06/26 02:06:49;;;;;;;1.00;0.80;;;22.20;58.20;;;;;;6270942;28;20668;-75
2023/06/26 02:09:49;;;;;;;0.68;0.60;;;22.20;58.20;;;;;;6271045;28;20598;-74
2023/06/26 02:12:50;;;;;;;1.48;0.70;;;22.20;58.90;;;;;;6270656;28;20034;-74
2023/06/26 02:15:50;;;;;;;1.08;0.70;;;22.20;58.20;;;;;;6270586;28;20115;-74
2023/06/26 02:18:51;;;;;;;0.73;0.60;;;22.20;58.20;;;;;;6270441;28;20032;-74
2023/06/26 02:21:51;;;;;;;1.23;1.13;;;22.20;58.20;;;;;;6252510;28;20029;-73
2023/06/26 02:24:52;;;;;;;0.60;0.60;;;22.20;58.20;;;;;;6270392;28;20036;-74
2023/06/26 02:27:53;;;;;;;0.60;0.60;;;22.20;58.90;;;;;;6269167;28;20028;-74
2023/06/26 02:30:54;;;;;;;0.65;0.65;;;22.20;58.20;;;;;;6269673;28;20057;-74
2023/06/26 02:33:54;;;;;;;0.70;0.70;;;22.20;58.20;;;;;;6252467;28;20048;-74
2023/06/26 02:36:55;;;;;;;0.88;0.70;;;22.20;58.20;;;;;;6270003;28;20029;-74
2023/06/26 02:39:55;;;;;;;1.13;0.88;;;22.20;58.20;;;;;;6270307;28;20507;-74
2023/06/26 02:42:56;;;;;;;1.00;0.85;;;22.20;58.30;;;;;;6265223;28;20079;-74
2023/06/26 02:45:57;;;;;;;0.85;0.80;;;22.20;58.20;;;;;;6269711;28;20028;-74
2023/06/26 02:48:57;;;;;;;0.90;0.80;;;22.20;58.30;;;;;;6269992;28;20028;-74
2023/06/26 02:51:58;;;;;;;0.90;0.82;;;22.20;58.30;;;;;;6269622;28;20029;-74
2023/06/26 02:54:58;;;;;;;0.80;0.80;;;22.20;58.30;;;;;;6269636;28;20418;-74
2023/06/26 02:57:59;;;;;;;0.90;0.82;;;22.20;58.30;;;;;;6269259;28;20464;-74
2023/06/26 03:01:00;;;;;;;0.60;0.60;;;22.20;58.30;;;;;;6269910;28;20166;-74
2023/06/26 03:04:00;;;;;;;0.70;0.70;;;22.20;58.30;;;;;;6269364;28;20024;-74
2023/06/26 03:07:01;;;;;;;0.88;0.80;;;22.20;58.30;;;;;;6269137;28;20024;-74
2023/06/26 03:10:01;;;;;;;0.60;0.60;;;22.20;58.30;;;;;;6269097;28;20045;-74
2023/06/26 03:13:02;;;;;;;0.80;0.80;;;22.20;58.30;;;;;;6269213;28;20047;-74
2023/06/26 03:16:04;;;;;;;1.20;0.80;;;22.20;58.30;;;;;;6268510;28;20043;-74
2023/06/26 03:19:04;;;;;;;0.82;0.80;;;22.20;58.30;;;;;;6268602;28;20028;-71
2023/06/26 03:22:05;;;;;;;1.00;0.70;;;22.20;58.30;;;;;;6268478;28;20072;-71
2023/06/26 03:25:06;;;;;;;1.08;0.95;;;22.20;58.30;;;;;;6268565;28;20067;-71
2023/06/26 03:28:07;;;;;;;0.98;0.70;;;22.20;58.30;;;;;;6268616;28;20029;-71
2023/06/26 03:31:07;;;;;;;0.95;0.80;;;22.20;58.30;;;;;;6268507;28;20067;-72
2023/06/26 03:34:08;;;;;;;1.00;0.85;;;22.10;58.30;;;;;;6268495;28;20112;-72
2023/06/26 03:37:08;;;;;;;1.05;0.95;;;22.20;58.40;;;;;;6268584;28;20047;-72
2023/06/26 03:40:10;;;;;;;0.82;0.70;;;22.20;58.40;;;;;;6268138;28;20021;-72
2023/06/26 03:43:10;;;;;;;1.00;0.90;;;22.20;58.30;;;;;;6269056;28;20025;-71
2023/06/26 03:46:11;;;;;;;1.15;0.85;;;22.20;58.30;;;;;;6261395;28;20033;-71
2023/06/26 03:49:11;;;;;;;0.82;0.70;;;22.20;58.30;;;;;;6268293;28;20100;-71
2023/06/26 03:52:12;;;;;;;0.90;0.73;;;22.20;58.40;;;;;;6268284;28;20017;-71
2023/06/26 03:55:13;;;;;;;0.80;0.60;;;22.20;58.30;;;;;;6268723;28;20029;-72
2023/06/26 03:58:13;;;;;;;0.60;0.60;;;22.20;58.40;;;;;;6267966;28;20107;-71
2023/06/26 04:01:14;;;;;;;0.88;0.80;;;22.20;58.40;;;;;;6267930;28;20479;-72
2023/06/26 04:04:14;;;;;;;1.10;0.95;;;22.20;58.40;;;;;;6250085;28;20124;-72
2023/06/26 04:07:15;;;;;;;0.85;0.80;;;22.20;58.40;;;;;;6267919;28;20487;-72
2023/06/26 04:10:16;;;;;;;1.00;0.90;;;22.20;58.40;;;;;;6267469;28;20025;-72
2023/06/26 04:13:16;;;;;;;0.80;0.80;;;22.20;58.40;;;;;;6267665;28;20382;-71
2023/06/26 04:16:17;;;;;;;0.70;0.70;;;22.20;58.40;;;;;;6267548;28;20072;-71
2023/06/26 04:19:17;;;;;;;0.63;0.63;;;22.20;58.40;;;;;;6263153;28;20028;-72
2023/06/26 04:22:18;;;;;;;1.00;0.90;;;22.20;58.40;;;;;;6267723;28;20111;-72
2023/06/26 04:25:18;;;;;;;0.95;0.90;;;22.20;58.40;;;;;;6267661;28;20498;-74
2023/06/26 04:28:19;;;;;;;0.90;0.70;;;22.20;58.40;;;;;;6267694;28;20013;-74
2023/06/26 04:31:20;;;;;;;0.70;0.70;;;22.20;58.40;;;;;;6267503;28;20053;-74
2023/06/26 04:34:21;;;;;;;0.75;0.70;;;22.20;58.40;;;;;;6267441;28;20334;-74
2023/06/26 04:37:22;;;;;;;0.70;0.70;;;22.20;58.50;;;;;;6267506;28;20021;-75
2023/06/26 04:40:23;;;;;;;0.90;0.90;;;22.20;58.40;;;;;;6267215;28;20125;-74
2023/06/26 04:43:23;;;;;;;0.95;0.80;;;22.10;59.00;;;;;;6267873;28;20135;-74
2023/06/26 04:46:24;;;;;;;0.60;0.60;;;22.20;58.50;;;;;;6266830;28;20167;-74
2023/06/26 04:49:25;;;;;;;0.70;0.70;;;22.20;59.20;;;;;;6267492;28;20036;-74
2023/06/26 04:52:26;;;;;;;0.95;0.80;;;22.20;58.50;;;;;;6254609;28;20028;-73
2023/06/26 04:55:27;;;;;;;0.75;0.75;;;22.20;58.50;;;;;;6272343;28;20063;-75
2023/06/26 04:58:27;;;;;;;0.70;0.70;;;22.20;58.50;;;;;;6272490;28;20032;-73
2023/06/26 05:01:29;;;;;;;1.05;0.93;;;22.20;58.50;;;;;;6265221;28;20026;-73
2023/06/26 05:04:30;;;;;;;1.08;0.90;;;22.10;58.50;;;;;;6247355;28;20498;-74
2023/06/26 05:07:30;;;;;;;1.02;0.82;;;22.10;58.40;;;;;;6262754;28;20025;-74
2023/06/26 05:10:31;;;;;;;0.98;0.85;;;22.10;58.40;;;;;;6272047;28;20028;-74
2023/06/26 05:13:32;;;;;;;1.02;0.80;;;22.20;58.50;;;;;;6271482;28;20464;-74
2023/06/26 05:16:34;;;;;;;0.77;0.75;;;22.20;58.50;;;;;;6271837;28;20480;-74
2023/06/26 05:19:34;;;;;;;0.70;0.65;;;22.10;58.50;;;;;;6271233;28;20031;-74
2023/06/26 05:22:38;;;;;;;0.90;0.80;;;22.10;58.50;;;;;;6271576;28;20032;-74
2023/06/26 05:25:40;;;;;;;0.90;0.73;;;22.20;58.50;;;;;;6263148;28;20025;-73
2023/06/26 05:28:41;;;;;;;1.15;1.02;;;22.10;58.50;;;;;;6258518;28;20021;-73
2023/06/26 05:31:44;;;;;;;0.80;0.80;;;22.20;58.50;;;;;;6269112;28;20488;-74
2023/06/26 05:34:49;;;;;;;1.10;0.90;;;22.10;58.50;;;;;;6270315;28;20060;-73
2023/06/26 05:37:51;;;;;;;0.93;0.88;;;22.20;58.50;;;;;;6269879;28;20476;-74
2023/06/26 05:40:52;;;;;;;0.73;0.70;;;22.20;58.50;;;;;;6270319;28;20404;-74
2023/06/26 05:43:54;;;;;;;0.80;0.80;;;22.20;58.50;;;;;;6267926;28;20037;-73
2023/06/26 05:46:54;;;;;;;0.82;0.77;;;22.10;58.50;;;;;;6250733;28;20033;-74
2023/06/26 05:49:55;;;;;;;1.10;0.90;;;22.20;58.60;;;;;;6260151;28;20549;-73
2023/06/26 05:52:56;;;;;;;0.98;0.85;;;22.10;58.50;;;;;;6270224;28;20057;-73
2023/06/26 05:55:57;;;;;;;1.00;0.90;;;22.10;58.50;;;;;;6265298;28;20037;-74
2023/06/26 05:58:58;;;;;;;0.70;0.70;;;22.20;58.60;;;;;;6268788;28;20048;-74
2023/06/26 06:01:59;;;;;;;1.05;0.95;;;22.20;58.60;;;;;;6261374;28;20511;-74
2023/06/26 06:04:59;;;;;;;0.85;0.70;;;22.10;58.50;;;;;;6267167;28;20029;-74
2023/06/26 06:08:00;;;;;;;0.93;0.90;;;22.10;58.50;;;;;;6271217;28;20021;-73
2023/06/26 06:11:01;;;;;;;0.85;0.85;;;22.20;58.70;;;;;;6253885;28;20701;-72
2023/06/26 06:14:02;;;;;;;0.73;0.65;;;22.20;58.80;;;;;;6270766;28;20124;-73
2023/06/26 06:17:03;;;;;;;0.82;0.80;;;22.20;58.90;;;;;;6270911;28;20063;-73
2023/06/26 06:20:04;;;;;;;1.58;0.80;;;22.20;58.80;;;;;;6270930;28;20025;-73
2023/06/26 06:23:06;;;;;;;0.75;0.75;;;22.20;58.80;;;;;;6256439;28;20032;-73
2023/06/26 06:26:06;;;;;;;1.10;0.90;;;22.20;58.80;;;;;;6270861;28;20017;-73
2023/06/26 06:29:07;;;;;;;0.93;0.85;;;22.10;58.70;;;;;;6270497;28;20066;-73
2023/06/26 06:32:08;;;;;;;1.13;0.90;;;22.20;58.70;;;;;;6270809;28;20017;-73
2023/06/26 06:35:09;;;;;;;1.10;0.90;;;22.20;58.70;;;;;;6270526;28;20068;-73
2023/06/26 06:38:10;;;;;;;1.35;0.80;;;22.20;58.70;;;;;;6264566;28;20036;-73
2023/06/26 06:41:10;;;;;;;1.08;0.98;;;22.20;58.70;;;;;;6261681;28;20458;-73
2023/06/26 06:44:11;;;;;;;0.82;0.73;;;22.10;58.60;;;;;;6259486;28;20059;-73
2023/06/26 06:47:12;;;;;;;1.02;0.90;;;22.20;58.70;;;;;;6270580;28;20025;-72
2023/06/26 06:50:13;;;;;;;0.65;0.60;;;22.20;58.70;;;;;;6269731;28;20021;-73
2023/06/26 06:53:14;;;;;;;1.05;0.93;;;22.20;58.70;;;;;;6269568;28;20035;-74
2023/06/26 06:56:15;;;;;;;0.90;0.85;;;22.20;58.70;;;;;;6270751;28;20492;-72
2023/06/26 06:59:15;;;;;;;0.63;0.63;;;22.20;58.70;;;;;;6270078;28;20056;-73
2023/06/26 07:02:21;;;;;;;0.63;0.60;;;22.20;58.70;;;;;;6268461;28;20060;-73
2023/06/26 07:05:22;;;;;;;1.23;0.80;;;22.20;58.70;;;;;;6268098;28;20032;-73
2023/06/26 07:08:22;;;;;;;0.80;0.80;;;22.10;58.60;;;;;;6270288;28;20028;-73
2023/06/26 07:11:23;;;;;;;0.90;0.90;;;22.10;58.60;;;;;;6255430;28;20029;-73
2023/06/26 07:14:24;;;;;;;0.85;0.80;;;22.20;58.70;;;;;;6258624;28;20059;-73
2023/06/26 07:17:24;;;;;;;0.85;0.77;;;22.20;58.70;;;;;;6269671;28;20025;-73
2023/06/26 07:20:25;;;;;;;0.75;0.75;;;22.20;58.70;;;;;;6269484;28;20036;-73
2023/06/26 07:23:26;;;;;;;1.00;0.82;;;22.20;58.70;;;;;;6268648;28;20431;-73
2023/06/26 07:26:27;;;;;;;0.77;0.77;;;22.20;58.70;;;;;;6268099;28;20387;-73
2023/06/26 07:29:27;;;;;;;0.90;0.80;;;22.20;58.70;;;;;;6267641;28;20120;-73
2023/06/26 07:32:28;;;;;;;1.00;0.80;;;22.20;58.70;;;;;;6261067;28;20044;-73
2023/06/26 07:35:29;;;;;;;0.90;0.80;;;22.20;58.70;;;;;;6247097;28;20153;-72
2023/06/26 07:38:29;;;;;;;2.58;1.10;;;22.20;59.00;;;;;;6268789;28;20021;-72
2023/06/26 07:41:31;;;;;;;3.15;1.13;;;22.30;58.80;;;;;;6268056;28;20078;-73
2023/06/26 07:44:31;;;;;;;1.40;1.00;;;22.30;58.80;;;;;;6267950;28;20021;-73
2023/06/26 07:47:32;;;;;;;1.13;0.95;;;22.30;58.70;;;;;;6267843;28;20031;-73
2023/06/26 07:50:33;;;;;;;1.25;1.00;;;22.30;58.70;;;;;;6267675;28;20065;-73
2023/06/26 07:53:33;;;;;;;1.52;1.05;;;22.30;58.60;;;;;;6268037;28;20040;-73
2023/06/26 07:56:55;;;;;;;1.25;0.90;;;22.40;58.70;;;;;;6262154;28;20502;-73
2023/06/26 07:59:56;;;;;;;1.05;0.80;;;22.40;58.60;;;;;;6267571;28;20048;-73
2023/06/26 08:02:56;;;;;;;1.10;0.90;;;22.40;58.70;;;;;;6248409;28;20418;-73
2023/06/26 08:05:57;;;;;;;1.63;1.20;;;22.40;58.60;;;;;;6249441;28;20032;-72
2023/06/26 08:08:58;;;;;;;1.15;0.88;;;22.40;59.00;;;;;;6259301;28;20025;-73
2023/06/26 08:11:59;;;;;;;2.42;1.10;;;22.40;58.60;;;;;;6269343;28;20053;-74
2023/06/26 08:15:02;;;;;;;1.00;0.90;;;22.40;58.50;;;;;;6250871;28;20403;-74
2023/06/26 08:18:02;;;;;;;3.05;1.23;;;22.50;58.50;;;;;;6262071;28;20369;-74
2023/06/26 08:21:03;;;;;;;1.88;0.93;;;22.50;58.50;;;;;;6264702;28;20081;-74
2023/06/26 08:24:04;;;;;;;1.35;1.00;;;22.50;58.50;;;;;;6249867;28;20025;-73
2023/06/26 08:27:05;;;;;;;1.52;1.10;;;22.50;58.60;;;;;;6268252;28;20025;-74
2023/06/26 08:30:06;;;;;;;1.10;1.00;;;22.50;58.60;;;;;;6261736;28;20053;-74
2023/06/26 08:33:12;;;;;;;1.95;1.17;;;22.50;58.70;;;;;;6258623;28;20112;-74
2023/06/26 08:36:12;;;;;;;2.10;1.20;;;22.50;58.70;;;;;;6257879;28;20091;-74
2023/06/26 08:39:13;;;;;;;1.30;1.15;;;22.50;58.70;;;;;;6274212;28;20029;-74
2023/06/26 08:42:14;;;;;;;1.70;1.20;;;22.50;58.80;;;;;;6242403;28;20021;-74
2023/06/26 08:45:14;;;;;;;2.80;1.20;;;22.40;58.70;;;;;;6254138;28;20283;-74
2023/06/26 08:48:15;;;;;;;1.70;1.25;;;22.50;58.80;;;;;;6275088;28;20096;-74
2023/06/26 08:51:19;;;;;;;1.20;1.10;;;22.40;58.70;;;;;;6274640;28;20092;-74
2023/06/26 08:54:28;;;;;;;1.38;1.08;;;22.40;58.70;;;;;;6274104;28;20649;-74
2023/06/26 08:57:31;;;;;;;1.50;1.23;;;22.50;58.90;;;;;;6266442;28;20036;-73
2023/06/26 09:00:32;;;;;;;1.23;0.98;;;22.40;58.80;;;;;;6256611;28;20816;-73
2023/06/26 09:03:33;;;;;;;1.20;1.00;;;22.40;58.80;;;;;;6242291;28;20025;-73
2023/06/26 09:06:34;;;;;;;3.70;0.95;;;22.40;58.80;;;;;;6265284;28;20020;-74
2023/06/26 09:09:35;;;;;;;1.27;1.10;;;22.40;58.70;;;;;;6273651;28;20043;-74
2023/06/26 09:12:37;;;;;;;1.40;1.10;;;22.40;58.70;;;;;;6272232;28;20447;-74
2023/06/26 09:15:42;;;;;;;1.58;1.00;;;22.40;58.70;;;;;;6255472;28;20028;-74
2023/06/26 09:18:45;;;;;;;2.70;1.10;;;22.40;58.70;;;;;;6264741;28;20438;-74
2023/06/26 09:21:50;;;;;;;1.30;1.15;;;22.40;58.80;;;;;;6263749;28;20033;-74
2023/06/26 09:24:51;;;;;;;2.10;1.20;;;22.40;58.70;;;;;;6268050;28;20466;-74
2023/06/26 09:27:53;;;;;;;1.73;1.10;;;22.40;58.70;;;;;;6272758;28;20126;-73
2023/06/26 09:30:53;;;;;;;1.23;1.00;;;22.40;58.70;;;;;;6272072;28;20059;-74
2023/06/26 09:33:58;;;;;;;1.30;1.05;;;22.40;58.80;;;;;;6272300;28;20364;-74
2023/06/26 09:37:02;;;;;;;1.10;0.90;;;22.40;58.80;;;;;;6267004;28;20025;-74
2023/06/26 09:40:04;;;;;;;1.98;1.08;;;22.40;58.80;;;;;;6269493;28;20487;-74
2023/06/26 09:43:12;;;;;;;1.40;1.27;;;22.40;58.80;;;;;;6273678;28;20056;-74
2023/06/26 09:46:31;;;;;;;0.95;0.90;;;22.40;58.90;;;;;;6273480;28;20017;-74
2023/06/26 09:49:32;;;;;;;1.73;1.35;;;22.40;59.00;;;;;;6249192;28;20022;-73
2023/06/26 09:52:34;;;;;;;1.48;1.20;;;22.40;58.90;;;;;;6267364;28;20083;-74
2023/06/26 09:55:36;;;;;;;1.55;1.05;;;22.30;58.80;;;;;;6273638;28;20036;-74
2023/06/26 09:58:39;;;;;;;1.85;1.23;;;22.30;58.90;;;;;;6266559;28;20037;-74
2023/06/26 10:01:41;;;;;;;1.70;1.10;;;22.30;58.90;;;;;;6270174;28;20017;-74
2023/06/26 10:04:42;;;;;;;1.20;1.10;;;22.30;58.90;;;;;;6273476;28;20021;-74
2023/06/26 10:07:43;;;;;;;1.10;1.00;;;22.30;58.90;;;;;;6252445;28;20040;-74
2023/06/26 10:10:46;;;;;;;1.30;1.20;;;22.30;59.00;;;;;;6273237;28;20588;-74
2023/06/26 10:13:51;;;;;;;1.30;1.10;;;22.30;58.90;;;;;;6269786;28;20080;-74
2023/06/26 10:16:52;;;;;;;1.45;1.15;;;22.30;59.00;;;;;;6245782;28;20057;-74
2023/06/26 10:19:54;;;;;;;1.42;1.15;;;22.30;59.00;;;;;;6258968;28;20035;-73
2023/06/26 10:22:57;;;;;;;1.52;1.17;;;22.30;59.00;;;;;;6258137;28;20028;-74
2023/06/26 10:26:00;;;;;;;1.20;1.10;;;22.30;59.00;;;;;;6267101;28;20037;-74
2023/06/26 10:29:02;;;;;;;1.52;0.98;;;22.30;59.00;;;;;;6272678;28;20013;-75
2023/06/26 10:32:05;;;;;;;1.30;1.20;;;22.30;59.00;;;;;;6258566;28;20537;-74
2023/06/26 10:35:07;;;;;;;1.45;1.27;;;22.30;59.00;;;;;;6255466;28;20051;-74
2023/06/26 10:38:07;;;;;;;1.30;1.10;;;22.30;59.00;;;;;;6271389;28;20108;-74
2023/06/26 10:41:11;;;;;;;1.38;1.27;;;22.30;59.00;;;;;;6254724;28;20660;-73
2023/06/26 10:44:16;;;;;;;7.25;1.70;;;22.30;59.00;;;;;;6244631;28;20479;-73
2023/06/26 10:47:36;;;;;;;1.45;1.27;;;22.30;59.20;;;;;;6271441;28;20040;-74
2023/06/26 10:50:37;;;;;;;3.47;1.48;;;22.40;59.50;;;;;;6237400;28;20021;-74
2023/06/26 10:53:38;;;;;;;1.25;1.13;;;22.50;59.50;;;;;;6266602;28;20154;-73
2023/06/26 10:56:44;;;;;;;1.45;1.13;;;22.50;58.40;;;;;;6271782;28;20029;-73
2023/06/26 10:59:46;;;;;;;1.23;1.02;;;22.40;56.70;;;;;;6252150;28;20039;-73
2023/06/26 11:02:53;;;;;;;1.38;1.20;;;22.50;56.20;;;;;;6271180;28;20480;-74
2023/06/26 11:06:20;;;;;;;1.30;1.13;;;22.60;55.60;;;;;;6255431;28;20029;-74
2023/06/26 11:09:24;;;;;;;1.10;1.00;;;22.70;55.00;;;;;;6250168;28;20060;-73
2023/06/26 11:12:38;;;;;;;1.93;1.10;;;22.80;54.80;;;;;;6258699;28;20048;-73
2023/06/26 11:15:38;;;;;;;2.38;1.20;;;22.90;54.40;;;;;;6255938;28;20029;-73
2023/06/26 11:18:39;;;;;;;1.42;1.17;;;22.90;54.00;;;;;;6268150;28;20560;-75
2023/06/26 11:21:40;;;;;;;1.30;0.90;;;23.00;53.90;;;;;;6246379;28;20468;-74
2023/06/26 11:24:43;;;;;;;1.35;0.95;;;23.00;53.60;;;;;;6259188;28;20032;-74
2023/06/26 11:27:44;;;;;;;1.55;1.10;;;23.00;53.40;;;;;;6271063;28;20077;-74
2023/06/26 11:30:45;;;;;;;3.15;1.10;;;23.10;53.30;;;;;;6269933;28;20048;-74
2023/06/26 11:33:46;;;;;;;1.67;1.00;;;23.10;53.20;;;;;;6270071;28;20537;-73
2023/06/26 11:36:48;;;;;;;1.23;1.00;;;23.10;53.10;;;;;;6270328;28;20035;-74
2023/06/26 11:39:49;;;;;;;1.60;1.10;;;23.10;53.10;;;;;;6270412;28;20086;-74
2023/06/26 11:42:52;;;;;;;1.52;1.00;;;23.10;52.90;;;;;;6264749;28;20052;-74
2023/06/26 11:45:52;;;;;;;0.98;0.88;;;23.10;52.90;;;;;;6269584;28;20051;-74
2023/06/26 11:48:53;;;;;;;1.33;1.10;;;23.10;52.80;;;;;;6270189;28;20028;-74
2023/06/26 11:51:54;;;;;;;1.40;0.98;;;23.10;52.70;;;;;;6270457;28;20013;-76
2023/06/26 11:54:55;;;;;;;0.80;0.80;;;23.10;52.80;;;;;;6266728;28;20040;-74
2023/06/26 11:57:56;;;;;;;1.40;1.00;;;23.20;52.60;;;;;;6269437;28;20029;-75
2023/06/26 12:00:57;;;;;;;1.13;1.02;;;23.10;52.90;;;;;;6269837;28;20059;-74
2023/06/26 12:04:03;;;;;;;1.00;0.90;;;23.20;52.60;;;;;;6270338;28;20021;-73
2023/06/26 12:07:07;;;;;;;1.10;1.00;;;23.20;52.60;;;;;;6269777;28;20018;-74
2023/06/26 12:10:09;;;;;;;1.20;1.00;;;23.20;52.40;;;;;;6269637;28;20426;-75
2023/06/26 12:13:10;;;;;;;1.95;1.13;;;23.20;52.30;;;;;;6269460;28;20074;-74
2023/06/26 12:16:10;;;;;;;1.02;0.90;;;23.20;52.30;;;;;;6262491;28;20061;-74
2023/06/26 12:19:11;;;;;;;5.03;1.27;;;23.20;52.20;;;;;;6261728;28;20024;-74
2023/06/26 12:22:12;;;;;;;1.20;0.90;;;23.20;52.20;;;;;;6252038;28;20032;-74
2023/06/26 12:25:13;;;;;;;1.17;0.90;;;23.20;52.10;;;;;;6269606;28;20403;-74
2023/06/26 12:28:18;;;;;;;1.10;0.88;;;23.20;52.10;;;;;;6254217;28;20052;-75
2023/06/26 12:31:21;;;;;;;1.15;1.00;;;23.20;51.90;;;;;;6262082;28;20519;-74
2023/06/26 12:34:28;;;;;;;1.00;0.80;;;23.20;51.90;;;;;;6248030;28;20079;-74
2023/06/26 12:37:28;;;;;;;1.02;0.93;;;23.20;51.80;;;;;;6262988;28;20025;-74
2023/06/26 12:40:29;;;;;;;2.00;1.00;;;23.20;51.90;;;;;;6254444;28;20686;-74
2023/06/26 12:43:29;;;;;;;1.00;0.90;;;23.20;51.80;;;;;;6269704;28;20442;-74
2023/06/26 12:46:37;;;;;;;0.80;0.80;;;23.20;51.70;;;;;;6268506;28;20109;-74
2023/06/26 12:49:39;;;;;;;1.45;0.95;;;23.20;51.70;;;;;;6269300;28;20052;-74
2023/06/26 12:52:39;;;;;;;1.10;1.00;;;23.20;51.60;;;;;;6269452;28;20033;-74
2023/06/26 12:55:40;;;;;;;0.77;0.73;;;23.20;51.60;;;;;;6260571;28;20068;-74
2023/06/26 12:58:40;;;;;;;1.33;0.95;;;23.20;51.50;;;;;;6269118;28;20043;-74
2023/06/26 13:01:41;;;;;;;1.70;1.00;;;23.20;51.50;;;;;;6269312;28;20057;-74
2023/06/26 13:04:44;;;;;;;1.38;1.00;;;23.20;51.40;;;;;;6251400;28;20468;-74
2023/06/26 13:07:44;;;;;;;0.85;0.82;;;23.20;51.40;;;;;;6268580;28;20494;-74
2023/06/26 13:10:45;;;;;;;0.70;0.70;;;23.20;51.40;;;;;;6269666;28;20078;-74
2023/06/26 13:13:46;;;;;;;1.00;0.90;;;23.20;51.30;;;;;;6273633;28;20029;-74
2023/06/26 13:16:47;;;;;;;1.02;0.70;;;23.20;51.20;;;;;;6273172;28;20378;-74
2023/06/26 13:19:48;;;;;;;1.65;1.10;;;23.20;51.20;;;;;;6273616;28;20404;-75
2023/06/26 13:22:48;;;;;;;0.80;0.68;;;23.20;51.20;;;;;;6272883;28;20021;-75
2023/06/26 13:25:50;;;;;;;0.70;0.70;;;23.20;51.20;;;;;;6254418;28;20482;-76
2023/06/26 13:28:51;;;;;;;1.33;1.00;;;23.20;51.10;;;;;;6273886;28;20025;-74
2023/06/26 13:31:51;;;;;;;0.85;0.80;;;23.20;51.10;;;;;;6258507;28;20056;-75
2023/06/26 13:34:54;;;;;;;0.63;0.63;;;23.20;51.00;;;;;;6270329;28;20033;-74
2023/06/26 13:37:54;;;;;;;0.75;0.75;;;23.20;51.00;;;;;;6265559;28;20103;-74
2023/06/26 13:40:57;;;;;;;1.45;0.90;;;23.20;50.90;;;;;;6272928;28;20484;-74
2023/06/26 13:43:57;;;;;;;0.98;0.70;;;23.20;50.90;;;;;;6273061;28;20021;-74
2023/06/26 13:46:58;;;;;;;1.02;0.82;;;23.20;50.80;;;;;;6272414;28;20472;-74
2023/06/26 13:49:59;;;;;;;1.00;0.88;;;23.20;50.80;;;;;;6273256;28;20021;-75
2023/06/26 13:52:59;;;;;;;1.42;1.00;;;23.20;50.70;;;;;;6269345;28;20542;-74
2023/06/26 13:56:00;;;;;;;0.70;0.70;;;23.20;50.70;;;;;;6272874;28;20043;-74
2023/06/26 13:59:02;;;;;;;1.27;0.93;;;23.20;50.70;;;;;;6267065;28;20063;-73
2023/06/26 14:02:05;;;;;;;0.73;0.73;;;23.20;50.70;;;;;;6270043;28;20479;-74
2023/06/26 14:05:05;;;;;;;0.85;0.73;;;23.20;50.70;;;;;;6272987;28;20078;-74
2023/06/26 14:08:08;;;;;;;0.60;0.60;;;23.20;50.60;;;;;;6272237;28;20418;-75
2023/06/26 14:11:09;;;;;;;0.80;0.80;;;23.20;50.50;;;;;;6269737;28;20429;-74
2023/06/26 14:14:09;;;;;;;1.05;0.73;;;23.20;50.50;;;;;;6272234;28;20111;-74
2023/06/26 14:17:16;;;;;;;0.80;0.70;;;23.20;50.40;;;;;;6271304;28;20032;-74
2023/06/26 14:20:16;;;;;;;0.80;0.80;;;23.30;50.50;;;;;;6272069;28;20025;-74
2023/06/26 14:23:17;;;;;;;0.85;0.80;;;23.20;50.50;;;;;;6253117;28;20028;-74
2023/06/26 14:26:18;;;;;;;1.08;0.77;;;23.20;50.40;;;;;;6271874;28;20092;-74
2023/06/26 14:29:20;;;;;;;1.08;0.90;;;23.30;50.50;;;;;;6271659;28;20029;-74
2023/06/26 14:32:20;;;;;;;0.80;0.80;;;23.30;50.40;;;;;;6271643;28;20701;-74
2023/06/26 14:35:21;;;;;;;1.05;0.95;;;23.30;50.50;;;;;;6263056;28;20032;-73
2023/06/26 14:38:21;;;;;;;1.27;0.90;;;23.30;50.50;;;;;;6271611;28;20100;-74
2023/06/26 14:41:22;;;;;;;1.70;0.80;;;23.30;50.40;;;;;;6262114;28;20032;-73
2023/06/26 14:44:23;;;;;;;1.52;0.98;;;23.20;50.30;;;;;;6267408;28;20131;-74
2023/06/26 14:47:23;;;;;;;1.20;0.90;;;23.30;50.40;;;;;;6270884;28;20025;-75
2023/06/26 14:50:24;;;;;;;1.27;0.85;;;23.30;50.40;;;;;;6271485;28;20021;-74
2023/06/26 14:53:24;;;;;;;1.35;1.08;;;23.30;50.40;;;;;;6270762;28;20028;-74
2023/06/26 14:56:25;;;;;;;1.20;0.80;;;23.30;50.30;;;;;;6270531;28;20040;-74
2023/06/26 14:59:26;;;;;;;1.85;0.80;;;23.20;50.20;;;;;;6271034;28;20029;-74
2023/06/26 15:02:27;;;;;;;1.40;0.98;;;23.30;50.20;;;;;;6253033;28;20083;-74
2023/06/26 15:05:27;;;;;;;1.88;0.95;;;23.30;50.30;;;;;;6267983;28;20668;-74
2023/06/26 15:08:28;;;;;;;1.08;0.98;;;23.30;50.20;;;;;;6270974;28;20104;-74
2023/06/26 15:11:29;;;;;;;1.25;0.80;;;23.30;50.20;;;;;;6271599;28;20013;-74
2023/06/26 15:14:29;;;;;;;0.95;0.75;;;23.30;50.20;;;;;;6270131;28;20021;-74
2023/06/26 15:17:30;;;;;;;0.77;0.68;;;23.30;50.10;;;;;;6269824;28;20715;-74
2023/06/26 15:20:30;;;;;;;1.15;0.98;;;23.30;50.10;;;;;;6270934;28;20100;-74
2023/06/26 15:23:31;;;;;;;1.25;0.90;;;23.30;50.20;;;;;;6270311;28;20017;-74
2023/06/26 15:26:32;;;;;;;0.90;0.80;;;23.30;50.00;;;;;;6270682;28;20017;-74
2023/06/26 15:29:32;;;;;;;1.02;0.90;;;23.30;50.00;;;;;;6270487;28;20128;-74
2023/06/26 15:32:33;;;;;;;1.05;0.85;;;23.30;50.00;;;;;;6271012;28;20568;-74
2023/06/26 15:35:33;;;;;;;1.10;0.77;;;23.30;50.10;;;;;;6260814;28;20033;-75
2023/06/26 15:38:34;;;;;;;1.20;1.10;;;23.30;49.90;;;;;;6266716;28;20036;-74
2023/06/26 15:41:36;;;;;;;3.63;0.82;;;23.30;49.90;;;;;;6271014;28;20021;-74
2023/06/26 15:44:37;;;;;;;0.80;0.80;;;23.30;49.90;;;;;;6270402;28;20025;-74
2023/06/26 15:47:38;;;;;;;1.10;0.80;;;23.30;49.90;;;;;;6270322;28;20604;-74